This is the latest recevied weather packets stored in our database for station/object K5OLV. If no packets are shown the sender has not sent any weather packets the latest 1 day(s).
| Time | Temp. | Humidity | Pressure | Rain* | Wind** | Luminosity | Snow |
|---|---|---|---|---|---|---|---|
| 1777977941 | 13.33° C | 71% | 1010.8 hPa | 0 mm | 2.68 m/s, 124° | 1 W/m² | - |
| 1777977639 | 13.33° C | 71% | 1010.7 hPa | 0 mm | 2.24 m/s, 136° | 0 W/m² | - |
| 1777977335 | 13.33° C | 71% | 1010.8 hPa | 0 mm | 2.68 m/s, 100° | 0 W/m² | - |
| 1777977033 | 13.89° C | 71% | 1010.7 hPa | 0 mm | 1.34 m/s, 120° | 0 W/m² | - |
| 1777976730 | 13.89° C | 69% | 1010.7 hPa | 0 mm | 1.79 m/s, 134° | 0 W/m² | - |
| 1777976427 | 13.89° C | 68% | 1010.7 hPa | 0 mm | 1.79 m/s, 129° | 0 W/m² | - |
| 1777976126 | 14.44° C | 68% | 1010.7 hPa | 0 mm | 1.79 m/s, 87° | 0 W/m² | - |
| 1777975822 | 14.44° C | 67% | 1010.7 hPa | 0 mm | 1.79 m/s, 96° | 0 W/m² | - |
| 1777975519 | 14.44° C | 69% | 1010.6 hPa | 0 mm | 1.79 m/s, 121° | 0 W/m² | - |
| 1777975216 | 15° C | 68% | 1010.6 hPa | 0 mm | 1.79 m/s, 147° | 0 W/m² | - |
| 1777974912 | 15° C | 67% | 1010.9 hPa | 0 mm | 1.34 m/s, 127° | 0 W/m² | - |
| 1777974608 | 15° C | 64% | 1010.6 hPa | 0 mm | 1.34 m/s, 75° | 0 W/m² | - |
| 1777974305 | 15.56° C | 61% | 1010.6 hPa | 0 mm | 1.34 m/s, 171° | 0 W/m² | - |
| 1777974001 | 16.11° C | 60% | 1010.5 hPa | 0 mm | 1.34 m/s, 110° | 0 W/m² | - |
| 1777973697 | 16.11° C | 60% | 1010.7 hPa | 0 mm | 1.34 m/s, 103° | 0 W/m² | - |
| 1777973395 | 16.11° C | 60% | 1010.7 hPa | 0 mm | 1.79 m/s, 120° | 0 W/m² | - |
| 1777973092 | 16.11° C | 61% | 1010.8 hPa | 0 mm | 0.89 m/s, 155° | 0 W/m² | - |
| 1777972790 | 15.56° C | 66% | 1010.8 hPa | 0 mm | 0.89 m/s, 176° | 0 W/m² | - |
| 1777972487 | 15.56° C | 63% | 1010.7 hPa | 0 mm | 1.34 m/s, 48° | 0 W/m² | - |
| 1777972185 | 15° C | 67% | 1010.6 hPa | 0 mm | 1.79 m/s, 110° | 0 W/m² | - |
| 1777971883 | 15.56° C | 65% | 1010.7 hPa | 0 mm | 1.34 m/s, 103° | 0 W/m² | - |
| 1777971580 | 16.11° C | 61% | 1010.5 hPa | 0 mm | 0.89 m/s, 156° | 0 W/m² | - |
| 1777971278 | 16.67° C | 59% | 1010.7 hPa | 0 mm | 1.34 m/s, 105° | 0 W/m² | - |
| 1777970976 | 17.22° C | 58% | 1010.6 hPa | 0 mm | 1.34 m/s, 108° | 0 W/m² | - |
| 1777970674 | 17.22° C | 58% | 1010.7 hPa | 0 mm | 0.45 m/s, 179° | 0 W/m² | - |
* Rain latest hour (hover to see other rain measurements)
** Current wind speed in m/s (hover to see current wind gust speed)